createdAt,value
2023-01-13T00:54:25.347Z,23.57
2023-01-13T00:55:26.316Z,23.52
2023-01-13T00:56:39.605Z,23.55
2023-01-13T00:57:26.302Z,23.54
2023-01-13T00:58:26.284Z,23.57
2023-01-13T00:59:26.275Z,23.55
2023-01-13T01:00:26.282Z,23.55
2023-01-13T01:01:26.458Z,23.55
2023-01-13T01:02:26.311Z,23.55
2023-01-13T01:03:26.242Z,23.55
2023-01-13T01:04:26.250Z,23.57
2023-01-13T01:05:26.235Z,23.57
2023-01-13T01:06:26.220Z,23.60
2023-01-13T01:07:26.209Z,23.60
2023-01-13T01:08:26.205Z,23.62
2023-01-13T01:09:26.200Z,23.61
2023-01-13T01:10:26.220Z,23.62
2023-01-13T01:11:26.177Z,23.64
2023-01-13T01:12:26.181Z,23.65
2023-01-13T01:13:26.163Z,23.66
2023-01-13T01:14:26.147Z,23.66
2023-01-13T01:15:26.139Z,23.69
2023-01-13T01:16:26.243Z,23.71
2023-01-13T01:17:26.129Z,23.69
2023-01-13T01:18:26.129Z,23.71
2023-01-13T01:19:26.103Z,23.69
2023-01-13T01:20:26.104Z,23.71
2023-01-13T01:21:26.097Z,23.72
2023-01-13T01:22:26.093Z,23.72
2023-01-13T01:23:26.072Z,23.73
2023-01-13T01:24:26.064Z,23.73
2023-01-13T01:25:26.066Z,23.75
2023-01-13T01:26:26.077Z,23.76
2023-01-13T01:27:26.033Z,23.78
2023-01-13T01:28:26.025Z,23.78
2023-01-13T01:29:26.019Z,23.78
2023-01-13T01:30:26.018Z,23.78
2023-01-13T01:31:26.035Z,23.80
2023-01-13T01:32:26.000Z,23.82
2023-01-13T01:33:25.983Z,23.80
2023-01-13T01:34:25.989Z,23.80
2023-01-13T01:35:25.972Z,23.82
2023-01-13T01:36:25.959Z,23.83
2023-01-13T01:37:25.951Z,23.83
2023-01-13T01:38:25.943Z,23.83
2023-01-13T01:39:25.952Z,23.85
2023-01-13T01:40:25.921Z,23.85
2023-01-13T01:41:25.915Z,23.83
2023-01-13T01:42:25.930Z,23.85
2023-01-13T01:43:25.903Z,23.86
2023-01-13T01:44:25.902Z,23.88
2023-01-13T01:45:25.884Z,23.85
2023-01-13T01:46:25.903Z,23.86
2023-01-13T01:47:25.864Z,23.86
2023-01-13T01:48:25.866Z,23.88
2023-01-13T01:49:25.853Z,23.88
2023-01-13T01:50:25.842Z,23.89
2023-01-13T01:51:25.834Z,23.86
2023-01-13T01:52:25.824Z,23.88
2023-01-13T01:53:25.827Z,23.89
2023-01-13T01:54:25.818Z,23.89
2023-01-13T01:55:25.795Z,23.89
2023-01-13T01:56:25.804Z,23.89
2023-01-13T01:57:25.787Z,23.89
2023-01-13T01:58:25.793Z,23.90
2023-01-13T01:59:25.766Z,23.92
2023-01-13T02:00:25.757Z,23.90
2023-01-13T02:01:25.823Z,23.90
2023-01-13T02:02:25.870Z,23.89
2023-01-13T02:03:25.744Z,23.92
2023-01-13T02:04:25.717Z,23.90
2023-01-13T02:05:25.714Z,23.89
2023-01-13T02:06:25.709Z,23.90
2023-01-13T02:07:25.697Z,23.93
2023-01-13T02:08:25.689Z,23.93
2023-01-13T02:09:25.679Z,23.92
2023-01-13T02:10:25.667Z,23.92
2023-01-13T02:11:25.664Z,23.93
2023-01-13T02:12:25.660Z,23.90
2023-01-13T02:13:25.646Z,23.93
2023-01-13T02:14:25.659Z,23.93
2023-01-13T02:15:25.636Z,23.95
2023-01-13T02:16:25.713Z,23.92
2023-01-13T02:17:25.611Z,23.92
2023-01-13T02:18:25.618Z,23.95
2023-01-13T02:19:25.597Z,23.93
2023-01-13T02:20:25.595Z,23.90
2023-01-13T02:21:25.573Z,23.93
2023-01-13T02:22:25.567Z,23.93
2023-01-13T02:23:25.557Z,23.92
2023-01-13T02:24:25.551Z,23.92
2023-01-13T02:25:25.552Z,23.93
2023-01-13T02:26:25.530Z,23.92
2023-01-13T02:27:25.523Z,23.93
2023-01-13T02:28:25.522Z,23.95
2023-01-13T02:29:25.509Z,23.93
2023-01-13T02:30:25.525Z,23.95
2023-01-13T02:31:25.540Z,23.93
2023-01-13T02:32:25.485Z,23.93
2023-01-13T02:33:25.473Z,23.92
2023-01-13T02:34:25.467Z,23.93
2023-01-13T02:35:25.457Z,23.92
2023-01-13T02:36:25.444Z,23.93
2023-01-13T02:37:25.437Z,23.93
2023-01-13T02:38:25.433Z,23.93
2023-01-13T02:39:25.428Z,23.95
2023-01-13T02:40:25.422Z,23.92
2023-01-13T02:41:25.399Z,23.93
2023-01-13T02:42:25.400Z,23.92
2023-01-13T02:43:25.392Z,23.93
2023-01-13T02:44:25.379Z,23.93
2023-01-13T02:45:25.410Z,23.92
2023-01-13T02:46:25.384Z,23.93
2023-01-13T02:47:25.369Z,23.93
2023-01-13T02:48:25.347Z,23.92
2023-01-13T02:49:25.333Z,23.92
2023-01-13T02:50:25.322Z,23.90
2023-01-13T02:51:25.317Z,23.92
2023-01-13T02:52:25.309Z,23.88
2023-01-13T02:53:25.309Z,23.89
2023-01-13T02:54:25.295Z,23.89
2023-01-13T02:55:25.287Z,23.88
2023-01-13T02:56:25.274Z,23.89
2023-01-13T02:57:25.268Z,23.86
2023-01-13T02:58:25.272Z,23.88
2023-01-13T02:59:25.249Z,23.88
2023-01-13T03:00:25.258Z,23.88
2023-01-13T03:01:25.453Z,23.86
2023-01-13T03:02:25.323Z,23.85
2023-01-13T03:03:25.212Z,23.86
2023-01-13T03:04:25.205Z,23.86
2023-01-13T03:05:25.195Z,23.86
2023-01-13T03:06:25.190Z,23.88
2023-01-13T03:07:25.179Z,23.86
2023-01-13T03:08:25.204Z,23.88
2023-01-13T03:09:25.157Z,23.86
2023-01-13T03:10:25.150Z,23.86
2023-01-13T03:11:25.148Z,23.86
2023-01-13T03:12:25.137Z,23.86
2023-01-13T03:13:25.144Z,23.86
2023-01-13T03:14:25.120Z,23.88
2023-01-13T03:15:25.123Z,23.86
2023-01-13T03:16:25.157Z,23.88
2023-01-13T03:17:25.089Z,23.85
2023-01-13T03:18:25.119Z,23.83
2023-01-13T03:19:25.077Z,23.85
2023-01-13T03:20:25.074Z,23.83
2023-01-13T03:21:25.062Z,23.85
2023-01-13T03:22:25.053Z,23.85
2023-01-13T03:23:25.042Z,23.83
2023-01-13T03:24:25.030Z,23.83
2023-01-13T03:25:25.020Z,23.88
2023-01-13T03:26:25.016Z,23.85
2023-01-13T03:27:25.013Z,23.86
2023-01-13T03:28:24.992Z,23.85
2023-01-13T03:29:24.995Z,23.85
2023-01-13T03:30:25.049Z,23.85
2023-01-13T03:31:24.968Z,23.86
2023-01-13T03:32:24.971Z,23.86
2023-01-13T03:33:24.950Z,23.83
2023-01-13T03:34:24.977Z,23.85
2023-01-13T03:35:24.932Z,23.88
2023-01-13T03:36:24.927Z,23.86
2023-01-13T03:37:24.920Z,23.88
2023-01-13T03:38:24.910Z,23.86
2023-01-13T03:39:24.904Z,23.85
2023-01-13T03:40:24.895Z,23.86
2023-01-13T03:41:24.889Z,23.88
2023-01-13T03:42:24.879Z,23.86
2023-01-13T03:43:24.884Z,23.88
2023-01-13T03:44:24.877Z,23.86
2023-01-13T03:45:24.856Z,23.86
2023-01-13T03:46:24.885Z,23.88
2023-01-13T03:47:24.832Z,23.88
2023-01-13T03:48:24.825Z,23.88
2023-01-13T03:49:24.827Z,23.85
2023-01-13T03:50:24.846Z,23.85
2023-01-13T03:51:24.808Z,23.88
2023-01-13T03:52:24.796Z,23.86
2023-01-13T03:53:24.797Z,23.86
2023-01-13T03:54:24.778Z,23.85
2023-01-13T03:55:24.768Z,23.88
2023-01-13T03:56:24.758Z,23.86
2023-01-13T03:57:24.750Z,23.89
2023-01-13T03:58:24.754Z,23.86
2023-01-13T03:59:24.735Z,23.86
2023-01-13T04:00:24.720Z,23.86
2023-01-13T04:01:24.909Z,23.89
2023-01-13T04:02:24.709Z,23.89
2023-01-13T04:03:24.781Z,23.88
2023-01-13T04:04:24.689Z,23.88
2023-01-13T04:05:24.690Z,23.88
2023-01-13T04:06:24.713Z,23.89
2023-01-13T04:07:24.657Z,23.86
2023-01-13T04:08:24.644Z,23.86
2023-01-13T04:09:24.642Z,23.86
2023-01-13T04:10:24.632Z,23.85
2023-01-13T04:11:24.633Z,23.85
2023-01-13T04:12:24.616Z,23.85
2023-01-13T04:13:24.616Z,23.85
2023-01-13T04:14:24.602Z,23.86
2023-01-13T04:15:24.641Z,23.85
2023-01-13T04:16:24.590Z,23.85
2023-01-13T04:17:24.587Z,23.83
2023-01-13T04:18:24.589Z,23.85
2023-01-13T04:19:24.566Z,23.86
2023-01-13T04:20:24.554Z,23.88
2023-01-13T04:21:24.537Z,23.88
2023-01-13T04:22:24.556Z,23.89
2023-01-13T04:23:24.541Z,23.89
2023-01-13T04:24:24.513Z,23.92
2023-01-13T04:25:24.508Z,23.89
2023-01-13T04:26:24.565Z,23.92
2023-01-13T04:27:24.489Z,23.92
2023-01-13T04:28:24.479Z,23.93
2023-01-13T04:29:24.479Z,23.95
2023-01-13T04:30:24.461Z,23.95
2023-01-13T04:31:24.525Z,23.95
2023-01-13T04:32:24.442Z,23.96
2023-01-13T04:33:24.431Z,23.95
2023-01-13T04:34:25.815Z,23.97
2023-01-13T04:35:24.421Z,23.99
2023-01-13T04:36:24.406Z,23.97
2023-01-13T04:37:24.397Z,24.00
2023-01-13T04:38:24.414Z,24.02
2023-01-13T04:39:24.400Z,24.00
2023-01-13T04:40:24.374Z,24.03
2023-01-13T04:41:24.367Z,24.02
2023-01-13T04:42:24.359Z,24.02
2023-01-13T04:43:24.351Z,24.05
2023-01-13T04:44:24.348Z,24.05
2023-01-13T04:45:24.342Z,24.03
2023-01-13T04:46:24.411Z,24.02
2023-01-13T04:47:24.320Z,24.03
2023-01-13T04:48:24.324Z,24.06
2023-01-13T04:49:24.309Z,24.07
2023-01-13T04:50:24.287Z,24.05
2023-01-13T04:51:24.280Z,24.07
2023-01-13T04:52:24.277Z,24.09
2023-01-13T04:53:24.264Z,24.09
2023-01-13T04:54:24.282Z,24.07
2023-01-13T04:55:24.244Z,24.09
2023-01-13T04:56:24.239Z,24.09
2023-01-13T04:57:24.239Z,24.10
2023-01-13T04:58:24.218Z,24.09
2023-01-13T04:59:24.207Z,24.12
2023-01-13T05:00:24.207Z,24.12
2023-01-13T05:01:24.334Z,24.12
2023-01-13T05:02:24.309Z,24.12
2023-01-13T05:03:24.174Z,24.14
2023-01-13T05:04:24.213Z,24.13
2023-01-13T05:05:24.167Z,24.12
2023-01-13T05:06:24.149Z,24.13
2023-01-13T05:07:24.150Z,24.13
2023-01-13T05:08:24.141Z,24.14
2023-01-13T05:09:24.128Z,24.13
2023-01-13T05:10:24.321Z,24.14
2023-01-13T05:11:24.118Z,24.16
2023-01-13T05:12:24.095Z,24.16
2023-01-13T05:13:24.089Z,24.17
2023-01-13T05:14:24.079Z,24.16
2023-01-13T05:15:24.070Z,24.17
2023-01-13T05:16:24.139Z,24.17
2023-01-13T05:17:24.059Z,24.19
2023-01-13T05:18:24.048Z,24.20
2023-01-13T05:19:24.039Z,24.17
2023-01-13T05:20:24.028Z,24.19
2023-01-13T05:21:24.020Z,24.19
2023-01-13T05:22:24.011Z,24.20
2023-01-13T05:23:24.004Z,24.19
2023-01-13T05:24:24.006Z,24.19
2023-01-13T05:25:23.993Z,24.19
2023-01-13T05:26:24.002Z,24.20
2023-01-13T05:27:23.969Z,24.20
2023-01-13T05:28:23.960Z,24.19
2023-01-13T05:29:23.960Z,24.21
2023-01-13T05:30:23.943Z,24.19
2023-01-13T05:31:23.969Z,24.20
2023-01-13T05:33:23.921Z,24.21
2023-01-13T05:34:23.916Z,24.20
2023-01-13T05:35:23.896Z,24.20
2023-01-13T05:36:23.888Z,24.20
2023-01-13T05:37:23.880Z,24.20
2023-01-13T05:38:23.879Z,24.23
2023-01-13T05:39:23.872Z,24.20
2023-01-13T05:40:23.856Z,24.23
2023-01-13T05:41:23.842Z,24.24
2023-01-13T05:42:23.866Z,24.21
2023-01-13T05:43:23.832Z,24.23
2023-01-13T05:44:23.828Z,24.21
2023-01-13T05:45:23.825Z,24.23
2023-01-13T05:46:23.833Z,24.21
2023-01-13T05:47:23.825Z,24.23
2023-01-13T05:48:23.794Z,24.25
2023-01-13T05:49:23.776Z,24.21
2023-01-13T05:50:23.790Z,24.23
2023-01-13T05:51:23.771Z,24.23
2023-01-13T05:52:23.769Z,24.23
2023-01-13T05:53:23.748Z,24.24
2023-01-13T05:54:23.741Z,24.24
2023-01-13T05:55:23.725Z,24.24
2023-01-13T05:56:23.718Z,24.24
2023-01-13T05:57:23.736Z,24.27
2023-01-13T05:58:23.736Z,24.24
2023-01-13T05:59:23.695Z,24.25
2023-01-13T06:00:23.690Z,24.25
2023-01-13T06:01:23.753Z,24.25
2023-01-13T06:02:23.670Z,24.25
2023-01-13T06:03:23.660Z,24.24
2023-01-13T06:04:23.709Z,24.25
2023-01-13T06:05:23.642Z,24.27
2023-01-13T06:06:23.637Z,24.27
2023-01-13T06:07:23.624Z,24.27
2023-01-13T06:08:23.648Z,24.27
2023-01-13T06:09:23.607Z,24.25
2023-01-13T06:10:23.596Z,24.24
2023-01-13T06:11:23.623Z,24.24
2023-01-13T06:12:23.578Z,24.24
2023-01-13T06:13:23.575Z,24.23
2023-01-13T06:14:23.597Z,24.23
2023-01-13T06:15:23.553Z,24.21
2023-01-13T06:16:23.612Z,24.21
2023-01-13T06:17:23.655Z,24.19
2023-01-13T06:18:23.527Z,24.19
2023-01-13T06:19:23.516Z,24.20
2023-01-13T06:20:23.518Z,24.20
2023-01-13T06:21:23.655Z,24.19
2023-01-13T06:22:23.505Z,24.19
2023-01-13T06:23:23.489Z,24.17
2023-01-13T06:24:23.653Z,24.17
2023-01-13T06:25:23.466Z,24.21
2023-01-13T06:26:23.457Z,24.19
2023-01-13T06:27:23.447Z,24.19
2023-01-13T06:28:23.650Z,24.20
2023-01-13T06:29:23.471Z,24.19
2023-01-13T06:31:23.474Z,24.21
2023-01-13T06:32:23.410Z,24.20
2023-01-13T06:33:23.399Z,24.20
2023-01-13T06:34:23.400Z,24.19
2023-01-13T06:35:23.395Z,24.19
2023-01-13T06:36:23.705Z,24.20
2023-01-13T06:37:23.366Z,24.21
2023-01-13T06:38:23.359Z,24.20
2023-01-13T06:40:24.368Z,24.21
2023-01-13T06:41:23.344Z,24.21
2023-01-13T06:42:23.324Z,24.21
2023-01-13T06:43:23.660Z,24.24
2023-01-13T06:44:23.306Z,24.23
2023-01-13T06:45:23.297Z,24.23
2023-01-13T06:46:23.350Z,24.25
2023-01-13T06:47:23.277Z,24.23
2023-01-13T06:48:24.659Z,24.23
2023-01-13T06:49:23.261Z,24.23
2023-01-13T06:50:23.255Z,24.23
2023-01-13T06:51:23.248Z,24.24
2023-01-13T06:52:23.654Z,24.25
2023-01-13T06:53:23.688Z,24.28
2023-01-13T06:54:23.222Z,24.28
2023-01-13T06:55:23.597Z,24.31
2023-01-13T06:56:23.206Z,24.33
2023-01-13T06:57:23.194Z,24.33
2023-01-13T07:00:23.164Z,24.40
2023-01-13T07:01:23.263Z,24.38
2023-01-13T07:02:23.360Z,24.43
2023-01-13T07:03:23.164Z,24.41
2023-01-13T07:05:23.128Z,24.46
2023-01-13T07:06:23.166Z,24.50
2023-01-13T07:07:23.116Z,24.52
2023-01-13T07:08:23.100Z,24.58
2023-01-13T07:09:23.091Z,24.58
2023-01-13T07:10:23.083Z,24.61
2023-01-13T07:11:23.170Z,24.65
2023-01-13T07:12:23.129Z,24.68
2023-01-13T07:13:23.106Z,24.68
2023-01-13T07:14:23.055Z,24.74
2023-01-13T07:15:23.188Z,24.75
2023-01-13T07:16:23.087Z,24.81
2023-01-13T07:18:23.278Z,24.86
2023-01-13T07:19:23.187Z,24.89
2023-01-13T07:20:23.329Z,24.93
2023-01-13T07:21:23.039Z,24.96
2023-01-13T07:22:23.031Z,24.99
2023-01-13T07:23:23.003Z,24.99
2023-01-13T07:24:23.231Z,25.03
2023-01-13T07:25:23.020Z,25.07
2023-01-13T07:26:22.982Z,25.06
2023-01-13T07:27:22.947Z,25.07
2023-01-13T07:28:22.953Z,25.09
2023-01-13T07:29:23.204Z,25.10
2023-01-13T07:30:22.998Z,25.10
2023-01-13T07:31:22.978Z,25.12
2023-01-13T07:32:22.903Z,25.13
2023-01-13T07:33:22.953Z,25.14
2023-01-13T07:34:23.194Z,25.16
2023-01-13T07:35:22.952Z,25.14
2023-01-13T07:36:22.873Z,25.17
2023-01-13T07:37:22.857Z,25.17
2023-01-13T07:38:22.868Z,25.19
2023-01-13T07:39:22.849Z,25.17
2023-01-13T07:40:23.191Z,25.17
2023-01-13T07:41:22.830Z,25.20
2023-01-13T07:42:22.824Z,25.20
2023-01-13T07:43:22.815Z,25.23
2023-01-13T07:44:22.835Z,25.23
2023-01-13T07:46:22.789Z,25.20
2023-01-13T07:47:22.789Z,25.14
2023-01-13T07:49:22.802Z,25.12
2023-01-13T07:50:22.755Z,25.13
2023-01-13T07:51:22.763Z,25.13
2023-01-13T07:52:22.748Z,25.12
2023-01-13T07:54:35.189Z,25.14
2023-01-13T07:57:22.701Z,25.22
2023-01-13T07:58:22.685Z,25.22
2023-01-13T08:00:22.677Z,25.24
2023-01-13T08:01:22.748Z,25.23
2023-01-13T08:02:22.989Z,25.24
2023-01-13T08:03:22.653Z,25.27
2023-01-13T08:06:22.627Z,25.29
2023-01-13T08:09:22.701Z,25.30
2023-01-13T08:14:22.728Z,25.27
2023-01-13T08:24:22.485Z,25.34
2023-01-13T08:27:22.484Z,25.33
2023-01-13T08:28:22.479Z,25.32
2023-01-13T08:29:22.469Z,25.32
2023-01-13T08:30:22.721Z,25.32
2023-01-13T08:37:22.426Z,25.34
2023-01-13T08:39:22.386Z,25.34
2023-01-13T08:41:22.346Z,25.36
2023-01-13T08:42:22.358Z,25.33
2023-01-13T08:46:22.324Z,25.29
2023-01-13T08:47:22.324Z,25.30
2023-01-13T08:50:22.288Z,25.30
2023-01-13T08:52:22.271Z,25.29
2023-01-13T08:54:22.275Z,25.30
2023-01-13T08:55:22.254Z,25.29
2023-01-13T08:57:22.361Z,25.34
2023-01-13T08:58:22.218Z,25.33
2023-01-13T08:59:22.229Z,25.34
2023-01-13T09:00:22.238Z,25.33
2023-01-13T09:01:22.383Z,25.33
2023-01-13T09:02:22.233Z,25.34
2023-01-13T09:03:22.216Z,25.33
2023-01-13T09:04:22.222Z,25.32
2023-01-13T09:05:22.174Z,25.33
2023-01-13T09:06:22.232Z,25.36
2023-01-13T09:09:22.172Z,25.36
2023-01-13T09:10:22.148Z,25.38
2023-01-13T09:12:22.125Z,25.37
2023-01-13T09:13:22.114Z,25.38
2023-01-13T09:14:22.243Z,25.38
2023-01-13T09:15:22.104Z,25.40
2023-01-13T09:16:22.088Z,25.38
2023-01-13T09:17:22.072Z,25.37
2023-01-13T09:18:22.063Z,25.38
2023-01-13T09:19:22.067Z,25.38
2023-01-13T09:20:22.255Z,25.43
2023-01-13T09:21:22.051Z,25.43
2023-01-13T09:22:22.051Z,25.41
2023-01-13T09:23:22.033Z,25.41
2023-01-13T09:24:22.024Z,25.43
2023-01-13T09:25:22.268Z,25.44
2023-01-13T09:26:22.023Z,25.44
2023-01-13T09:27:21.976Z,25.43
2023-01-13T09:28:21.973Z,25.44
2023-01-13T09:29:21.996Z,25.43
2023-01-13T09:31:22.043Z,25.47
2023-01-13T09:32:21.984Z,25.48
2023-01-13T09:33:21.950Z,25.47
2023-01-13T09:34:21.948Z,25.45
2023-01-13T09:35:21.940Z,25.47
2023-01-13T09:36:21.935Z,25.47
2023-01-13T09:38:21.916Z,25.50
2023-01-13T09:39:21.916Z,25.51
2023-01-13T09:40:21.953Z,25.50
2023-01-13T09:41:21.916Z,25.48
2023-01-13T09:43:21.878Z,25.50
2023-01-13T09:44:21.872Z,25.44
2023-01-13T09:45:21.881Z,25.45
2023-01-13T09:46:21.997Z,25.44
2023-01-13T09:48:21.907Z,25.44
2023-01-13T09:50:21.919Z,25.38
2023-01-13T09:52:21.830Z,25.36
2023-01-13T09:53:21.785Z,25.37
2023-01-13T09:54:21.784Z,25.36
2023-01-13T09:55:21.781Z,25.36
2023-01-13T09:56:22.320Z,25.40
2023-01-13T09:58:21.813Z,25.40
2023-01-13T09:59:21.757Z,25.41
2023-01-13T10:00:21.737Z,25.41
2023-01-13T10:01:21.800Z,25.43
2023-01-13T10:02:21.758Z,25.41
2023-01-13T10:03:21.768Z,25.40
2023-01-13T10:04:21.748Z,25.43
2023-01-13T10:05:21.779Z,25.38
2023-01-13T10:06:21.700Z,25.38
2023-01-13T10:08:21.678Z,25.34
2023-01-13T10:09:21.663Z,25.34
2023-01-13T10:10:21.753Z,25.36
2023-01-13T10:11:21.679Z,25.34
2023-01-13T10:12:21.763Z,25.40
2023-01-13T10:14:21.601Z,25.37
2023-01-13T10:15:21.615Z,25.40
2023-01-13T10:16:21.725Z,25.40
2023-01-13T10:17:21.763Z,25.41
2023-01-13T10:18:21.579Z,25.41
2023-01-13T10:19:21.558Z,25.43
2023-01-13T10:20:21.556Z,25.44
2023-01-13T10:21:21.543Z,25.44
2023-01-13T10:22:21.537Z,25.45
2023-01-13T10:25:21.508Z,25.44
2023-01-13T10:26:21.615Z,25.41
2023-01-13T10:27:21.492Z,25.40
2023-01-13T10:31:21.554Z,25.37
2023-01-13T10:46:21.439Z,25.20
2023-01-13T10:51:21.309Z,25.10
2023-01-13T10:55:21.309Z,25.02
2023-01-13T10:58:21.273Z,24.99
2023-01-13T10:59:21.275Z,24.99
2023-01-13T11:01:21.544Z,24.96
2023-01-13T11:02:25.686Z,24.92
2023-01-13T11:04:21.445Z,24.93
2023-01-13T11:08:21.251Z,24.90
2023-01-13T11:13:21.248Z,24.89
2023-01-13T11:18:21.420Z,24.85
2023-01-13T11:19:21.247Z,24.85
2023-01-13T11:37:21.296Z,24.74
2023-01-13T11:40:20.898Z,24.71
2023-01-13T12:04:20.777Z,24.55
2023-01-13T12:15:20.616Z,24.58
2023-01-13T12:16:20.708Z,24.54
2023-01-13T12:54:20.282Z,24.57
2023-01-13T20:44:16.220Z,24.09
2023-01-13T20:45:16.210Z,24.10
2023-01-13T20:46:16.215Z,24.10
2023-01-13T20:47:16.189Z,24.09
2023-01-13T20:48:16.183Z,24.10
2023-01-13T20:49:16.182Z,24.12
2023-01-13T20:50:16.168Z,24.09
2023-01-13T20:51:16.162Z,24.09
2023-01-13T20:52:16.155Z,24.09
2023-01-13T20:53:16.165Z,24.09
2023-01-13T20:54:16.133Z,24.10
2023-01-13T20:55:16.135Z,24.07
2023-01-13T20:56:16.115Z,24.07
2023-01-13T20:57:16.104Z,24.07
2023-01-13T20:58:16.110Z,24.09
2023-01-13T20:59:16.084Z,24.10
2023-01-13T21:00:16.079Z,24.07
2023-01-13T21:01:16.186Z,24.09
2023-01-13T21:02:16.071Z,24.09
2023-01-13T21:03:16.059Z,24.07
2023-01-13T21:04:16.052Z,24.09
2023-01-13T21:05:16.042Z,24.05
2023-01-13T21:06:16.056Z,24.07
2023-01-13T21:07:16.022Z,24.07
2023-01-13T21:08:16.009Z,24.07
2023-01-13T21:09:16.027Z,24.06
2023-01-13T21:10:15.996Z,24.07
2023-01-13T21:11:15.984Z,24.07
2023-01-13T21:12:15.991Z,24.06
2023-01-13T21:13:15.967Z,24.06
2023-01-13T21:14:15.958Z,24.06
2023-01-13T21:15:15.950Z,24.06
2023-01-13T21:16:15.992Z,24.06
2023-01-13T21:17:15.936Z,24.05
2023-01-13T21:18:15.927Z,24.06
2023-01-13T21:19:15.915Z,24.05
2023-01-13T21:20:15.915Z,24.07
2023-01-13T21:21:15.905Z,24.07
2023-01-13T21:22:15.889Z,24.09
2023-01-13T21:23:15.880Z,24.07
2023-01-13T21:24:15.873Z,24.09
2023-01-13T21:25:15.888Z,24.06
2023-01-13T21:26:15.861Z,24.07
2023-01-13T21:27:15.851Z,24.06
2023-01-13T21:28:15.840Z,24.06
2023-01-13T21:29:15.827Z,24.05
2023-01-13T21:30:15.883Z,24.07
2023-01-13T21:31:15.848Z,24.06
2023-01-13T21:32:15.805Z,24.07
2023-01-13T21:33:15.795Z,24.07
2023-01-13T21:34:15.792Z,24.07
2023-01-13T21:35:15.853Z,24.07
2023-01-13T21:36:15.772Z,24.06
2023-01-13T21:37:15.767Z,24.07
2023-01-13T21:38:15.755Z,24.07
2023-01-13T21:39:15.748Z,24.09
2023-01-13T21:40:15.734Z,24.05
2023-01-13T21:41:15.760Z,24.09
2023-01-13T21:42:15.727Z,24.09
2023-01-13T21:43:15.708Z,24.06
2023-01-13T21:44:15.706Z,24.07
2023-01-13T21:45:15.700Z,24.06
2023-01-13T21:46:15.746Z,24.06
2023-01-13T21:47:15.676Z,24.06
2023-01-13T21:48:15.677Z,24.07
2023-01-13T21:49:15.671Z,24.07
2023-01-13T21:50:15.649Z,24.06
2023-01-13T21:51:15.656Z,24.03
2023-01-13T21:52:15.632Z,24.05
2023-01-13T21:53:15.642Z,24.06
2023-01-13T21:54:15.620Z,24.06
2023-01-13T21:55:15.606Z,24.05
2023-01-13T21:56:15.596Z,24.05
2023-01-13T21:57:15.624Z,24.06
2023-01-13T21:58:15.587Z,24.06
